createdAt,value
2019-04-07T00:01:34.372Z,99.90
2019-04-07T00:04:03.173Z,99.90
2019-04-07T00:06:31.689Z,99.90
2019-04-07T00:09:00.508Z,99.90
2019-04-07T00:11:29.774Z,99.90
2019-04-07T00:13:58.238Z,99.90
2019-04-07T00:16:26.682Z,99.90
2019-04-07T00:18:55.647Z,99.90
2019-04-07T00:21:24.160Z,99.90
2019-04-07T00:23:52.595Z,99.90
2019-04-07T00:26:21.597Z,99.90
2019-04-07T00:28:50.061Z,99.90
2019-04-07T00:31:18.508Z,99.90
2019-04-07T00:33:47.298Z,99.90
2019-04-07T00:36:16.568Z,99.90
2019-04-07T00:38:45.130Z,99.90
2019-04-07T00:41:13.595Z,99.90
2019-04-07T00:43:42.085Z,99.90
2019-04-07T00:46:10.607Z,99.90
2019-04-07T00:48:39.564Z,99.90
2019-04-07T00:51:08.120Z,99.90
2019-04-07T00:53:36.687Z,99.90
2019-04-07T00:56:05.368Z,99.90
2019-04-07T00:58:34.348Z,99.90
2019-04-07T01:01:02.843Z,99.90
2019-04-07T01:03:31.315Z,99.90
2019-04-07T01:05:59.923Z,99.90
2019-04-07T01:08:28.384Z,99.90
2019-04-07T01:10:56.994Z,99.90
2019-04-07T01:13:25.458Z,99.90
2019-04-07T01:15:54.151Z,99.90
2019-04-07T01:18:23.154Z,99.90
2019-04-07T01:20:51.944Z,99.90
2019-04-07T01:23:20.935Z,99.90
2019-04-07T01:26:08.771Z,99.90
2019-04-07T01:28:37.497Z,99.90
2019-04-07T01:31:07.121Z,99.90
2019-04-07T01:33:35.643Z,99.90
2019-04-07T01:36:04.277Z,99.90
2019-04-07T01:38:33.237Z,99.90
2019-04-07T01:41:06.314Z,99.90
2019-04-07T01:43:37.115Z,99.90
2019-04-07T01:46:07.234Z,99.90
2019-04-07T01:48:46.888Z,99.90
2019-04-07T01:51:22.791Z,99.90
2019-04-07T01:53:56.360Z,99.90
2019-04-07T01:56:29.624Z,99.90
2019-04-07T01:59:11.060Z,99.90
2019-04-07T02:01:55.661Z,99.90
2019-04-07T02:04:34.721Z,99.90
2019-04-07T02:07:17.322Z,99.90
2019-04-07T02:09:47.896Z,99.90
2019-04-07T02:12:30.265Z,99.90
2019-04-07T02:15:17.346Z,99.90
2019-04-07T02:18:10.270Z,99.90
2019-04-07T02:20:45.610Z,99.90
2019-04-07T02:23:21.470Z,99.90
2019-04-07T02:25:54.496Z,99.90
2019-04-07T02:28:24.581Z,99.90
2019-04-07T02:30:58.778Z,99.90
2019-04-07T02:33:29.048Z,99.90
2019-04-07T02:36:20.941Z,99.90
2019-04-07T02:38:39.957Z,99.90
2019-04-07T02:41:27.429Z,99.90
2019-04-07T02:44:00.364Z,99.90
2019-04-07T02:46:36.674Z,99.90
2019-04-07T02:49:22.809Z,99.90
2019-04-07T02:52:11.177Z,99.90
2019-04-07T02:54:42.869Z,99.90
2019-04-07T02:57:13.285Z,99.90
2019-04-07T02:59:49.232Z,99.90
2019-04-07T03:02:31.745Z,99.90
2019-04-07T03:05:05.312Z,99.90
2019-04-07T03:07:43.103Z,99.90
2019-04-07T03:10:35.055Z,99.90
2019-04-07T03:13:24.274Z,99.90
2019-04-07T03:16:13.088Z,99.90
2019-04-07T03:18:55.352Z,99.90
2019-04-07T03:21:35.115Z,99.90
2019-04-07T03:24:21.024Z,99.90
2019-04-07T03:26:51.548Z,99.90
2019-04-07T03:29:27.724Z,99.90
2019-04-07T03:32:18.260Z,99.90
2019-04-07T03:34:50.896Z,99.90
2019-04-07T03:37:34.502Z,99.90
2019-04-07T03:39:57.193Z,99.90
2019-04-07T03:42:39.331Z,99.90
2019-04-07T03:45:15.800Z,99.90
2019-04-07T03:47:54.753Z,99.90
2019-04-07T03:53:28.968Z,99.90
2019-04-07T03:55:59.875Z,99.90
2019-04-07T03:58:30.963Z,99.90
2019-04-07T04:01:24.001Z,99.90
2019-04-07T04:03:54.270Z,99.90
2019-04-07T04:06:40.981Z,99.90
2019-04-07T04:09:15.460Z,99.90
2019-04-07T04:11:55.616Z,99.90
2019-04-07T04:14:41.928Z,99.90
2019-04-07T04:17:10.418Z,99.90
2019-04-07T04:19:38.955Z,99.90
2019-04-07T04:22:07.508Z,99.90
2019-04-07T04:24:36.694Z,99.90
2019-04-07T04:27:06.638Z,99.90
2019-04-07T04:29:35.331Z,99.90
2019-04-07T04:32:03.862Z,99.90
2019-04-07T04:34:32.962Z,99.90
2019-04-07T04:37:34.623Z,99.90
2019-04-07T04:39:51.242Z,99.90
2019-04-07T04:42:20.447Z,99.90
2019-04-07T04:44:49.124Z,99.90
2019-04-07T04:47:17.637Z,99.90
2019-04-07T04:49:46.079Z,99.90
2019-04-07T04:52:33.875Z,99.90
2019-04-07T04:55:02.352Z,99.90
2019-04-07T04:57:31.886Z,99.90
2019-04-07T05:00:00.595Z,99.90
2019-04-07T05:02:29.067Z,99.90
2019-04-07T05:04:57.582Z,99.90
2019-04-07T05:07:26.281Z,99.90
2019-04-07T05:09:56.532Z,99.90
2019-04-07T05:12:44.599Z,99.90
2019-04-07T05:15:13.213Z,99.90
2019-04-07T05:17:42.060Z,99.90
2019-04-07T05:20:10.950Z,99.90
2019-04-07T05:22:39.502Z,99.90
2019-04-07T05:25:08.597Z,99.90
2019-04-07T05:27:37.132Z,99.90
2019-04-07T05:30:07.793Z,99.90
2019-04-07T05:32:36.824Z,99.90
2019-04-07T05:35:08.803Z,99.90
2019-04-07T05:37:37.346Z,99.90
2019-04-07T05:40:06.673Z,99.90
2019-04-07T05:42:35.483Z,99.90
2019-04-07T05:45:06.452Z,99.90
2019-04-07T05:47:35.188Z,99.90
2019-04-07T05:50:16.586Z,99.90
2019-04-07T05:52:45.142Z,99.90
2019-04-07T05:55:14.223Z,99.90
2019-04-07T05:57:43.159Z,99.90
2019-04-07T06:00:16.671Z,99.90
2019-04-07T06:02:44.984Z,99.90
2019-04-07T06:05:16.278Z,99.90
2019-04-07T06:07:44.649Z,99.90
2019-04-07T06:10:13.338Z,99.90
2019-04-07T06:12:44.907Z,99.90
2019-04-07T06:15:12.861Z,99.90
2019-04-07T06:17:41.419Z,99.90
2019-04-07T06:20:14.229Z,99.90
2019-04-07T06:22:40.477Z,99.90
2019-04-07T06:25:09.737Z,99.90
2019-04-07T06:27:57.842Z,99.90
2019-04-07T06:30:29.965Z,99.90
2019-04-07T06:32:56.962Z,99.90
2019-04-07T06:35:26.040Z,99.90
2019-04-07T06:37:57.657Z,99.90
2019-04-07T06:40:24.858Z,99.90
2019-04-07T06:42:53.412Z,99.90
2019-04-07T06:45:29.387Z,99.90
2019-04-07T06:48:01.592Z,99.90
2019-04-07T06:50:47.224Z,99.90
2019-04-07T06:53:16.320Z,99.90
2019-04-07T06:56:00.044Z,99.90
2019-04-07T06:58:42.939Z,99.90
2019-04-07T07:01:20.126Z,99.90
2019-04-07T07:03:51.378Z,99.90
2019-04-07T07:06:38.544Z,99.90
2019-04-07T07:09:16.495Z,99.90
2019-04-07T07:11:49.711Z,99.90
2019-04-07T07:14:38.057Z,99.90
2019-04-07T07:17:09.447Z,99.90
2019-04-07T07:19:40.150Z,99.90
2019-04-07T07:22:25.740Z,99.90
2019-04-07T07:24:58.020Z,99.90
2019-04-07T07:27:25.120Z,99.90
2019-04-07T07:29:55.364Z,99.90
2019-04-07T07:32:24.851Z,99.90
2019-04-07T07:34:54.104Z,99.90
2019-04-07T07:37:22.972Z,99.90
2019-04-07T07:39:53.263Z,99.90
2019-04-07T07:42:24.073Z,99.90
2019-04-07T07:44:52.490Z,99.90
2019-04-07T07:47:22.593Z,99.90
2019-04-07T07:49:51.940Z,99.90
2019-04-07T07:52:21.754Z,99.90
2019-04-07T07:54:50.869Z,99.90
2019-04-07T07:57:23.476Z,99.90
2019-04-07T07:59:49.827Z,99.90
2019-04-07T08:02:19.965Z,99.90
2019-04-07T08:04:48.744Z,99.90
2019-04-07T08:07:18.200Z,99.90
2019-04-07T08:09:46.990Z,99.90
2019-04-07T08:12:16.249Z,99.90
2019-04-07T08:14:49.764Z,99.90
2019-04-07T08:17:15.077Z,99.90
2019-04-07T08:19:44.543Z,99.90
2019-04-07T08:22:25.404Z,99.90
2019-04-07T08:24:44.920Z,99.90
2019-04-07T08:27:13.967Z,99.90
2019-04-07T08:29:42.483Z,99.90
2019-04-07T08:32:11.096Z,99.90
2019-04-07T08:34:40.371Z,99.90
2019-04-07T08:37:09.527Z,99.90
2019-04-07T08:39:38.719Z,99.90
2019-04-07T08:42:10.677Z,99.90
2019-04-07T08:44:37.525Z,98.20
2019-04-07T08:47:06.633Z,97.50
2019-04-07T08:49:35.806Z,96.80
2019-04-07T08:52:09.072Z,96.80
2019-04-07T08:54:35.585Z,96.60
2019-04-07T08:57:04.609Z,95.90
2019-04-07T08:59:33.139Z,96.40
2019-04-07T09:02:01.941Z,95.50
2019-04-07T09:04:31.082Z,94.10
2019-04-07T09:07:03.045Z,91.70
2019-04-07T09:09:35.948Z,93.70
2019-04-07T09:12:01.551Z,92.10
2019-04-07T09:14:31.074Z,90.90
2019-04-07T09:17:07.166Z,90.10
2019-04-07T09:19:44.212Z,90.70
2019-04-07T09:22:23.430Z,87.50
2019-04-07T09:24:56.719Z,85.20
2019-04-07T09:27:32.980Z,83.50
2019-04-07T09:30:08.731Z,81.00
2019-04-07T09:32:53.570Z,83.60
2019-04-07T09:35:39.703Z,78.20
2019-04-07T09:38:12.738Z,81.50
2019-04-07T09:40:48.901Z,78.60
2019-04-07T09:43:22.430Z,80.60
2019-04-07T09:46:10.250Z,80.20
2019-04-07T09:48:49.595Z,78.40
2019-04-07T09:51:24.370Z,78.30
2019-04-07T09:54:04.000Z,76.70
2019-04-07T09:56:50.802Z,71.40
2019-04-07T09:59:23.981Z,74.80
2019-04-07T10:01:59.502Z,72.50
2019-04-07T10:04:28.728Z,73.80
2019-04-07T10:07:09.649Z,74.90
2019-04-07T10:10:03.583Z,73.10
2019-04-07T10:12:24.815Z,72.20
2019-04-07T10:14:55.272Z,72.10
2019-04-07T10:17:31.769Z,73.70
2019-04-07T10:20:21.059Z,73.50
2019-04-07T10:23:08.079Z,75.10
2019-04-07T10:25:39.082Z,74.20
2019-04-07T10:28:13.777Z,73.70
2019-04-07T10:30:52.924Z,74.80
2019-04-07T10:33:44.305Z,75.40
2019-04-07T10:36:17.667Z,73.80
2019-04-07T10:38:50.822Z,70.20
2019-04-07T10:41:38.259Z,68.80
2019-04-07T10:44:26.382Z,67.40
2019-04-07T10:46:56.650Z,67.90
2019-04-07T10:49:27.423Z,67.00
2019-04-07T10:52:13.852Z,65.80
2019-04-07T10:54:44.765Z,66.80
2019-04-07T10:57:17.903Z,64.50
2019-04-07T10:59:53.340Z,64.10
2019-04-07T11:02:23.770Z,63.60
2019-04-07T11:04:57.331Z,63.40
2019-04-07T11:07:40.318Z,63.40
2019-04-07T11:10:11.446Z,64.10
2019-04-07T11:12:51.330Z,63.00
2019-04-07T11:15:24.892Z,58.80
2019-04-07T11:17:58.201Z,58.50
2019-04-07T11:20:44.490Z,59.60
2019-04-07T11:23:18.185Z,58.00
2019-04-07T11:26:04.547Z,58.20
2019-04-07T11:28:35.403Z,57.80
2019-04-07T11:31:11.455Z,57.90
2019-04-07T11:33:44.935Z,57.90
2019-04-07T11:36:20.317Z,57.50
2019-04-07T11:38:52.748Z,57.70
2019-04-07T11:41:27.734Z,55.40
2019-04-07T11:44:00.803Z,56.80
2019-04-07T11:46:36.982Z,57.90
2019-04-07T11:49:23.066Z,54.50
2019-04-07T11:51:56.093Z,54.40
2019-04-07T11:54:26.306Z,55.20
2019-04-07T11:56:56.537Z,54.50
2019-04-07T11:59:45.892Z,52.30
2019-04-07T12:02:22.847Z,51.80
2019-04-07T12:04:55.911Z,50.60
2019-04-07T12:07:29.221Z,49.40
2019-04-07T12:10:16.137Z,49.10
2019-04-07T12:12:46.223Z,49.30
2019-04-07T12:15:16.468Z,49.60
2019-04-07T12:17:52.481Z,51.80
2019-04-07T12:20:35.446Z,50.70
2019-04-07T12:23:06.391Z,51.30
2019-04-07T12:25:46.115Z,51.90
2019-04-07T12:28:27.757Z,51.20
2019-04-07T12:31:03.795Z,53.80
2019-04-07T12:33:50.657Z,52.30
2019-04-07T12:36:37.543Z,52.30
2019-04-07T12:39:26.957Z,49.70
2019-04-07T12:41:58.179Z,51.20
2019-04-07T12:44:38.222Z,50.70
2019-04-07T12:47:20.282Z,50.00
2019-04-07T12:49:53.377Z,50.60
2019-04-07T12:52:31.143Z,52.10
2019-04-07T12:55:19.300Z,49.20
2019-04-07T12:58:01.884Z,50.90
2019-04-07T13:00:56.108Z,49.30
2019-04-07T13:03:16.914Z,48.60
2019-04-07T13:05:53.015Z,48.90
2019-04-07T13:08:24.660Z,53.30
2019-04-07T13:10:57.616Z,49.00
2019-04-07T13:13:37.429Z,49.90
2019-04-07T13:16:25.363Z,48.30
2019-04-07T13:18:55.458Z,50.20
2019-04-07T13:21:25.618Z,49.80
2019-04-07T13:24:05.194Z,49.90
2019-04-07T13:26:33.579Z,49.30
2019-04-07T13:29:04.259Z,46.30
2019-04-07T13:31:34.442Z,47.20
2019-04-07T13:34:10.661Z,49.20
2019-04-07T13:36:55.897Z,50.80
2019-04-07T13:39:26.066Z,51.90
2019-04-07T13:42:13.215Z,52.10
2019-04-07T13:44:49.610Z,51.10
2019-04-07T13:47:23.110Z,49.80
2019-04-07T13:49:58.997Z,48.70
2019-04-07T13:52:44.331Z,48.00
2019-04-07T13:55:15.236Z,49.20
2019-04-07T13:57:54.916Z,48.70
2019-04-07T14:00:32.774Z,46.90
2019-04-07T14:03:03.350Z,46.40
2019-04-07T14:05:34.246Z,46.00
2019-04-07T14:08:19.928Z,44.50
2019-04-07T14:10:53.909Z,46.90
2019-04-07T14:13:24.555Z,45.70
2019-04-07T14:15:58.605Z,47.50
2019-04-07T14:18:32.088Z,47.20
2019-04-07T14:21:13.720Z,47.20
2019-04-07T14:24:03.619Z,46.50
2019-04-07T14:26:34.590Z,46.60
2019-04-07T14:29:20.117Z,48.50
2019-04-07T14:31:53.403Z,48.50
2019-04-07T14:34:30.405Z,49.00
2019-04-07T14:37:07.351Z,48.40
2019-04-07T14:39:43.471Z,48.90
2019-04-07T14:42:13.569Z,47.30
2019-04-07T14:44:46.790Z,48.00
2019-04-07T14:47:19.858Z,49.50
2019-04-07T14:49:59.489Z,49.10
2019-04-07T14:52:36.129Z,50.10
2019-04-07T14:55:24.804Z,49.50
2019-04-07T14:58:04.492Z,48.70
2019-04-07T15:00:43.991Z,49.60
2019-04-07T15:03:12.596Z,47.50
2019-04-07T15:05:49.413Z,47.90
2019-04-07T15:08:20.443Z,47.90
2019-04-07T15:10:59.033Z,49.30
2019-04-07T15:13:29.356Z,50.60
2019-04-07T15:15:58.348Z,50.30
2019-04-07T15:18:27.579Z,48.00
2019-04-07T15:20:56.243Z,47.80
2019-04-07T15:23:25.526Z,47.80
2019-04-07T15:25:54.161Z,48.10
2019-04-07T15:28:23.416Z,49.50
2019-04-07T15:30:52.088Z,48.40
2019-04-07T15:33:21.144Z,49.60
2019-04-07T15:35:50.533Z,50.30
2019-04-07T15:38:23.776Z,52.10
2019-04-07T15:40:49.524Z,51.10
2019-04-07T15:43:18.030Z,49.80
2019-04-07T15:45:48.605Z,49.40
2019-04-07T15:48:17.172Z,49.40
2019-04-07T15:50:45.687Z,49.00
2019-04-07T15:53:15.330Z,48.80
2019-04-07T15:55:51.038Z,49.30
2019-04-07T15:58:14.955Z,50.10
2019-04-07T16:00:44.056Z,49.00
2019-04-07T16:03:15.258Z,48.90
2019-04-07T16:05:45.901Z,49.90
2019-04-07T16:08:13.853Z,48.90
2019-04-07T16:10:42.500Z,50.30
2019-04-07T16:13:11.059Z,50.20
2019-04-07T16:15:42.786Z,49.90
2019-04-07T16:18:10.522Z,51.10
2019-04-07T16:20:40.334Z,50.30
2019-04-07T16:23:10.278Z,50.30
2019-04-07T16:25:40.461Z,50.30
2019-04-07T16:28:12.851Z,49.50
2019-04-07T16:30:39.507Z,50.30
2019-04-07T16:33:08.796Z,50.70
2019-04-07T16:35:37.350Z,50.90
2019-04-07T16:38:05.789Z,51.20
2019-04-07T16:40:35.009Z,51.30
2019-04-07T16:43:12.443Z,52.10
2019-04-07T16:45:33.949Z,52.20
2019-04-07T16:48:04.587Z,52.20
2019-04-07T16:50:32.654Z,52.10
2019-04-07T16:53:04.502Z,52.20
2019-04-07T16:55:34.965Z,53.20
2019-04-07T16:58:03.691Z,52.30
2019-04-07T17:00:32.385Z,53.00
2019-04-07T17:03:01.296Z,53.00
2019-04-07T17:05:30.255Z,52.50
2019-04-07T17:07:59.476Z,53.10
2019-04-07T17:10:30.995Z,52.80
2019-04-07T17:13:00.441Z,55.00
2019-04-07T17:15:29.395Z,52.60
2019-04-07T17:17:58.826Z,53.50
2019-04-07T17:20:28.427Z,53.70
2019-04-07T17:22:58.273Z,52.70
2019-04-07T17:25:26.946Z,52.80
2019-04-07T17:27:58.660Z,53.20
2019-04-07T17:30:26.271Z,54.60
2019-04-07T17:32:56.531Z,53.40
2019-04-07T17:35:25.082Z,53.60
2019-04-07T17:37:56.563Z,54.50
2019-04-07T17:40:32.036Z,54.30
2019-04-07T17:43:02.926Z,54.30
2019-04-07T17:45:46.247Z,55.60
2019-04-07T17:48:17.082Z,54.70
2019-04-07T17:51:06.331Z,55.30
2019-04-07T17:53:38.231Z,55.60
2019-04-07T17:56:29.839Z,57.20
2019-04-07T17:59:01.826Z,56.80
2019-04-07T18:01:35.772Z,57.80
2019-04-07T18:04:14.624Z,57.40
2019-04-07T18:06:43.973Z,58.30
2019-04-07T18:09:19.743Z,59.10
2019-04-07T18:11:53.424Z,59.70
2019-04-07T18:14:30.096Z,59.70
2019-04-07T18:17:04.265Z,60.90
2019-04-07T18:19:50.355Z,61.60
2019-04-07T18:22:27.423Z,62.80
2019-04-07T18:24:59.672Z,65.50
2019-04-07T18:27:32.752Z,66.60
2019-04-07T18:30:09.809Z,67.60
2019-04-07T18:32:55.611Z,78.70
2019-04-07T18:35:42.058Z,82.70
2019-04-07T18:38:28.625Z,82.00
2019-04-07T18:41:11.145Z,85.20
2019-04-07T18:43:52.214Z,90.30
2019-04-07T18:46:19.555Z,90.00
2019-04-07T18:48:49.654Z,91.60
2019-04-07T18:51:23.160Z,93.20
2019-04-07T18:53:57.396Z,92.40
2019-04-07T18:56:25.200Z,93.80
2019-04-07T18:58:57.928Z,94.40
2019-04-07T19:01:28.525Z,95.30
2019-04-07T19:04:02.474Z,98.00
2019-04-07T19:06:36.933Z,98.00
2019-04-07T19:09:23.918Z,97.10
2019-04-07T19:12:18.902Z,98.20
2019-04-07T19:14:56.194Z,95.90
2019-04-07T19:17:38.565Z,95.30
2019-04-07T19:20:18.095Z,99.90
2019-04-07T19:23:06.319Z,98.00
2019-04-07T19:25:52.492Z,97.40
2019-04-07T19:28:34.093Z,98.30
2019-04-07T19:31:04.431Z,97.20
2019-04-07T19:33:40.301Z,95.90
2019-04-07T19:36:22.949Z,97.80
2019-04-07T19:38:54.140Z,96.00
2019-04-07T19:41:36.002Z,97.80
2019-04-07T19:44:33.655Z,97.60
2019-04-07T19:46:54.502Z,97.80
2019-04-07T19:49:30.316Z,98.00
2019-04-07T19:52:16.459Z,99.40
2019-04-07T19:54:49.343Z,98.30
2019-04-07T19:57:24.279Z,99.90
2019-04-07T20:00:15.379Z,98.80
2019-04-07T20:02:51.220Z,99.70
2019-04-07T20:05:27.104Z,99.90
2019-04-07T20:08:14.210Z,98.70
2019-04-07T20:10:49.918Z,99.90
2019-04-07T20:13:39.497Z,99.90
2019-04-07T20:16:16.428Z,99.90
2019-04-07T20:19:00.522Z,99.90
2019-04-07T20:21:38.292Z,99.90
2019-04-07T20:24:06.365Z,99.90
2019-04-07T20:26:50.977Z,99.90
2019-04-07T20:29:23.781Z,99.90
2019-04-07T20:32:10.975Z,99.90
2019-04-07T20:34:45.034Z,99.90
2019-04-07T20:37:18.193Z,99.90
2019-04-07T20:39:48.938Z,99.90
2019-04-07T20:42:19.311Z,99.90
2019-04-07T20:45:02.469Z,99.90
2019-04-07T20:47:33.081Z,99.90
2019-04-07T20:50:03.241Z,99.90
2019-04-07T20:52:34.249Z,99.90
2019-04-07T20:55:06.095Z,99.90
2019-04-07T20:57:48.229Z,99.90
2019-04-07T21:00:37.172Z,99.90
2019-04-07T21:03:26.489Z,99.90
2019-04-07T21:06:13.225Z,99.90
2019-04-07T21:08:46.027Z,99.90
2019-04-07T21:11:17.201Z,99.90
2019-04-07T21:13:56.666Z,99.90
2019-04-07T21:16:29.964Z,99.90
2019-04-07T21:19:04.201Z,99.90
2019-04-07T21:21:34.369Z,99.90
2019-04-07T21:24:21.239Z,99.90
2019-04-07T21:26:51.976Z,99.90
2019-04-07T21:29:25.954Z,99.90
2019-04-07T21:32:09.806Z,99.90
2019-04-07T21:34:40.637Z,99.90
2019-04-07T21:37:23.046Z,99.90
2019-04-07T21:40:09.038Z,99.90
2019-04-07T21:42:55.081Z,99.90
2019-04-07T21:45:36.517Z,99.90
2019-04-07T21:48:00.240Z,99.90
2019-04-07T21:50:34.020Z,99.90
2019-04-07T21:53:10.329Z,99.90
2019-04-07T21:55:46.189Z,99.90
2019-04-07T21:58:16.664Z,99.90
2019-04-07T22:00:53.064Z,99.90
2019-04-07T22:03:46.194Z,99.90
2019-04-07T22:06:19.466Z,99.90
2019-04-07T22:09:07.645Z,99.90
2019-04-07T22:11:36.755Z,99.90
2019-04-07T22:14:07.291Z,99.90
2019-04-07T22:16:35.643Z,99.90
2019-04-07T22:19:04.363Z,99.90
2019-04-07T22:21:32.833Z,99.90
2019-04-07T22:24:01.918Z,99.90
2019-04-07T22:26:31.526Z,99.90
2019-04-07T22:29:02.892Z,99.90
2019-04-07T22:31:31.939Z,99.90
2019-04-07T22:34:02.353Z,99.90
2019-04-07T22:36:31.487Z,99.90
2019-04-07T22:39:02.225Z,99.90
2019-04-07T22:41:30.223Z,99.90
2019-04-07T22:43:59.583Z,99.90
2019-04-07T22:46:28.959Z,99.90
2019-04-07T22:48:58.739Z,99.90
2019-04-07T22:51:28.543Z,99.90
2019-04-07T22:53:57.732Z,99.90
2019-04-07T22:56:27.947Z,99.90
2019-04-07T22:58:56.435Z,99.90
2019-04-07T23:01:25.093Z,99.90
2019-04-07T23:03:53.786Z,99.90
2019-04-07T23:06:23.211Z,99.90
2019-04-07T23:08:51.653Z,99.90
2019-04-07T23:11:20.439Z,99.90
2019-04-07T23:13:49.316Z,99.90
2019-04-07T23:16:18.850Z,99.90
2019-04-07T23:18:47.750Z,99.90
2019-04-07T23:21:17.160Z,99.90
2019-04-07T23:23:46.236Z,99.90
2019-04-07T23:26:14.783Z,99.90
2019-04-07T23:28:43.237Z,99.90
2019-04-07T23:31:11.768Z,99.90
2019-04-07T23:33:40.214Z,99.90
2019-04-07T23:36:09.448Z,99.90
2019-04-07T23:38:38.991Z,99.90
2019-04-07T23:41:07.645Z,99.90
2019-04-07T23:43:36.154Z,99.90
2019-04-07T23:46:05.114Z,99.90
2019-04-07T23:48:33.599Z,99.90
2019-04-07T23:51:03.741Z,99.90
2019-04-07T23:54:10.736Z,99.90
2019-04-07T23:56:41.549Z,99.90
2019-04-07T23:59:10.578Z,99.90
